createdAt,value
2023-01-07T00:01:40.111Z,0.70
2023-01-07T00:04:08.880Z,0.80
2023-01-07T00:06:38.106Z,0.70
2023-01-07T00:09:07.039Z,0.70
2023-01-07T00:11:37.061Z,0.90
2023-01-07T00:14:06.949Z,0.90
2023-01-07T00:16:35.890Z,0.90
2023-01-07T00:19:05.510Z,0.80
2023-01-07T00:21:33.672Z,0.90
2023-01-07T00:24:03.435Z,1.10
2023-01-07T00:26:33.170Z,1.20
2023-01-07T00:29:00.497Z,1.20
2023-01-07T00:31:32.919Z,1.20
2023-01-07T00:34:00.320Z,1.20
2023-01-07T00:36:30.820Z,1.20
2023-01-07T00:38:59.938Z,1.20
2023-01-07T00:41:27.453Z,1.20
2023-01-07T00:43:55.021Z,1.20
2023-01-07T00:46:22.406Z,1.10
2023-01-07T00:48:49.595Z,1.00
2023-01-07T00:51:18.313Z,1.20
2023-01-07T00:53:45.317Z,1.20
2023-01-07T00:56:15.021Z,1.20
2023-01-07T00:58:42.352Z,1.00
2023-01-07T01:01:10.547Z,1.00
2023-01-07T01:03:37.621Z,1.00
2023-01-07T01:06:15.073Z,1.00
2023-01-07T01:08:44.270Z,1.00
2023-01-07T01:11:12.854Z,1.10
2023-01-07T01:13:40.433Z,1.00
2023-01-07T01:16:09.753Z,1.10
2023-01-07T01:18:37.320Z,1.20
2023-01-07T01:21:06.835Z,1.10
2023-01-07T01:23:34.057Z,1.20
2023-01-07T01:26:15.455Z,1.20
2023-01-07T01:28:43.975Z,1.20
2023-01-07T01:31:11.655Z,1.20
2023-01-07T01:33:38.602Z,1.30
2023-01-07T01:36:08.188Z,1.20
2023-01-07T01:38:35.079Z,1.10
2023-01-07T01:41:01.971Z,1.20
2023-01-07T01:43:35.137Z,1.10
2023-01-07T01:46:12.648Z,1.20
2023-01-07T01:48:46.465Z,1.20
2023-01-07T01:51:15.643Z,1.20
2023-01-07T01:53:42.781Z,1.10
2023-01-07T01:56:12.971Z,1.10
2023-01-07T01:58:45.399Z,1.20
2023-01-07T02:01:13.627Z,1.20
2023-01-07T02:03:40.589Z,1.20
2023-01-07T02:06:14.542Z,1.20
2023-01-07T02:08:41.377Z,1.20
2023-01-07T02:11:20.475Z,1.20
2023-01-07T02:14:13.488Z,1.20
2023-01-07T02:16:58.769Z,1.20
2023-01-07T02:19:46.539Z,1.30
2023-01-07T02:22:21.951Z,1.30
2023-01-07T02:25:19.443Z,1.30
2023-01-07T02:28:15.193Z,1.30
2023-01-07T02:31:00.546Z,1.30
2023-01-07T02:33:40.995Z,1.30
2023-01-07T02:36:12.818Z,1.30
2023-01-07T02:39:14.860Z,1.30
2023-01-07T02:41:51.227Z,1.40
2023-01-07T02:44:56.484Z,1.40
2023-01-07T02:47:32.165Z,1.40
2023-01-07T02:49:59.036Z,1.40
2023-01-07T02:52:28.706Z,1.50
2023-01-07T02:55:24.884Z,1.50
2023-01-07T02:58:06.388Z,1.50
2023-01-07T03:00:49.011Z,1.50
2023-01-07T03:04:06.354Z,1.60
2023-01-07T03:06:53.853Z,1.60
2023-01-07T03:12:33.868Z,1.60
2023-01-07T03:15:13.947Z,1.60
2023-01-07T03:17:52.349Z,1.60
2023-01-07T03:20:22.707Z,1.70
2023-01-07T03:22:51.027Z,1.70
2023-01-07T03:25:21.700Z,1.70
2023-01-07T03:27:50.612Z,1.70
2023-01-07T03:30:18.947Z,1.80
2023-01-07T03:33:14.679Z,1.80
2023-01-07T03:35:45.599Z,1.80
2023-01-07T03:38:13.215Z,1.90
2023-01-07T03:40:40.155Z,1.80
2023-01-07T03:43:13.378Z,1.80
2023-01-07T03:45:41.650Z,1.80
2023-01-07T03:48:08.545Z,1.80
2023-01-07T03:50:35.585Z,1.80
2023-01-07T03:53:02.487Z,1.80
2023-01-07T03:55:29.291Z,1.80
2023-01-07T03:57:56.923Z,1.80
2023-01-07T04:00:24.343Z,1.90
2023-01-07T04:02:51.446Z,1.80
2023-01-07T04:05:18.357Z,1.90
2023-01-07T04:07:45.210Z,1.80
2023-01-07T04:10:12.053Z,1.90
2023-01-07T04:12:38.905Z,1.80
2023-01-07T04:15:06.522Z,1.70
2023-01-07T04:17:33.456Z,1.70
2023-01-07T04:20:00.282Z,1.60
2023-01-07T04:22:27.454Z,1.60
2023-01-07T04:24:54.284Z,1.60
2023-01-07T04:27:21.107Z,1.70
2023-01-07T04:29:48.034Z,1.70
2023-01-07T04:32:14.845Z,1.60
2023-01-07T04:34:41.659Z,1.60
2023-01-07T04:37:08.507Z,1.70
2023-01-07T04:39:35.307Z,1.70
2023-01-07T04:42:02.116Z,1.70
2023-01-07T04:44:28.942Z,1.70
2023-01-07T04:46:55.743Z,1.70
2023-01-07T04:49:22.610Z,1.70
2023-01-07T04:51:49.560Z,1.70
2023-01-07T04:54:16.369Z,1.80
2023-01-07T04:56:43.298Z,1.70
2023-01-07T04:59:10.205Z,1.80
2023-01-07T05:01:37.177Z,1.80
2023-01-07T05:04:04.406Z,1.90
2023-01-07T05:06:31.250Z,1.80
2023-01-07T05:08:58.275Z,1.80
2023-01-07T05:11:25.101Z,1.80
2023-01-07T05:13:52.385Z,1.90
2023-01-07T05:16:19.455Z,1.90
2023-01-07T05:18:46.435Z,1.90
2023-01-07T05:21:13.320Z,1.90
2023-01-07T05:23:40.248Z,1.90
2023-01-07T05:26:07.266Z,1.90
2023-01-07T05:28:34.770Z,2.10
2023-01-07T05:31:01.700Z,1.90
2023-01-07T05:33:28.940Z,1.90
2023-01-07T05:35:55.829Z,2.00
2023-01-07T05:38:22.731Z,1.90
2023-01-07T05:40:50.249Z,1.90
2023-01-07T05:43:17.787Z,2.00
2023-01-07T05:45:46.187Z,1.80
2023-01-07T05:48:14.335Z,1.90
2023-01-07T05:50:41.838Z,1.90
2023-01-07T05:53:10.040Z,1.90
2023-01-07T05:55:38.768Z,1.90
2023-01-07T05:58:07.241Z,1.80
2023-01-07T06:00:35.278Z,1.90
2023-01-07T06:03:02.215Z,2.00
2023-01-07T06:05:29.177Z,2.00
2023-01-07T06:07:56.070Z,1.90
2023-01-07T06:10:23.027Z,1.80
2023-01-07T06:12:51.457Z,1.90
2023-01-07T06:15:18.793Z,1.90
2023-01-07T06:17:45.665Z,1.90
2023-01-07T06:20:15.042Z,1.80
2023-01-07T06:22:43.187Z,1.80
2023-01-07T06:25:11.472Z,1.80
2023-01-07T06:27:40.818Z,1.70
2023-01-07T06:30:11.851Z,1.80
2023-01-07T06:32:40.475Z,1.90
2023-01-07T06:35:09.590Z,1.90
2023-01-07T06:37:36.415Z,1.90
2023-01-07T06:40:04.021Z,1.90
2023-01-07T06:42:30.836Z,1.90
2023-01-07T06:44:57.653Z,1.90
2023-01-07T06:47:25.722Z,1.90
2023-01-07T06:49:52.959Z,1.80
2023-01-07T06:52:19.883Z,2.10
2023-01-07T06:54:48.512Z,2.10
2023-01-07T06:57:15.564Z,2.20
2023-01-07T06:59:42.448Z,2.30
2023-01-07T07:02:21.118Z,2.30
2023-01-07T07:04:47.995Z,2.30
2023-01-07T07:07:16.128Z,2.30
2023-01-07T07:09:43.535Z,2.40
2023-01-07T07:12:10.482Z,2.30
2023-01-07T07:14:37.358Z,2.20
2023-01-07T07:17:04.859Z,2.40
2023-01-07T07:19:31.724Z,2.20
2023-01-07T07:21:58.706Z,2.20
2023-01-07T07:24:25.648Z,2.10
2023-01-07T07:26:52.877Z,2.00
2023-01-07T07:29:21.644Z,2.20
2023-01-07T07:31:48.749Z,2.20
2023-01-07T07:34:15.643Z,2.40
2023-01-07T07:36:42.587Z,2.40
2023-01-07T07:39:10.823Z,2.50
2023-01-07T07:41:37.627Z,2.70
2023-01-07T07:44:04.571Z,2.70
2023-01-07T07:46:32.138Z,2.90
2023-01-07T07:48:59.069Z,2.90
2023-01-07T07:51:25.951Z,2.80
2023-01-07T07:53:52.872Z,2.80
2023-01-07T07:56:19.737Z,2.80
2023-01-07T07:58:46.541Z,2.80
2023-01-07T08:01:13.485Z,2.70
2023-01-07T08:03:40.416Z,2.60
2023-01-07T08:06:07.392Z,2.80
2023-01-07T08:08:34.226Z,2.90
2023-01-07T08:11:02.697Z,2.80
2023-01-07T08:13:30.479Z,3.00
2023-01-07T08:15:58.240Z,2.90
2023-01-07T08:18:25.350Z,2.50
2023-01-07T08:20:52.245Z,3.10
2023-01-07T08:23:19.123Z,3.20
2023-01-07T08:25:46.062Z,3.20
2023-01-07T08:28:13.083Z,3.20
2023-01-07T08:30:40.017Z,3.20
2023-01-07T08:33:08.210Z,3.20
2023-01-07T08:35:35.300Z,3.30
2023-01-07T08:38:11.013Z,3.20
2023-01-07T08:40:38.672Z,3.20
2023-01-07T08:43:07.278Z,3.20
2023-01-07T08:45:34.916Z,3.30
2023-01-07T08:48:01.877Z,3.20
2023-01-07T08:50:30.738Z,3.30
2023-01-07T08:52:58.272Z,3.20
2023-01-07T08:55:25.679Z,3.10
2023-01-07T08:57:53.226Z,3.30
2023-01-07T09:00:20.418Z,3.30
2023-01-07T09:02:47.347Z,3.30
2023-01-07T09:05:14.475Z,3.40
2023-01-07T09:07:41.374Z,3.60
2023-01-07T09:10:10.069Z,3.60
2023-01-07T09:12:37.269Z,3.70
2023-01-07T09:15:04.731Z,3.70
2023-01-07T09:17:31.530Z,3.80
2023-01-07T09:19:58.849Z,3.80
2023-01-07T09:22:25.733Z,3.80
2023-01-07T09:24:52.551Z,3.60
2023-01-07T09:27:19.396Z,3.40
2023-01-07T09:29:46.328Z,3.60
2023-01-07T09:32:13.191Z,3.70
2023-01-07T09:34:40.194Z,3.90
2023-01-07T09:37:07.630Z,3.90
2023-01-07T09:39:34.485Z,3.80
2023-01-07T09:42:33.760Z,3.80
2023-01-07T09:45:17.111Z,3.80
2023-01-07T09:47:47.358Z,3.70
2023-01-07T09:50:25.976Z,3.80
2023-01-07T09:52:56.626Z,3.80
2023-01-07T09:55:34.905Z,4.00
2023-01-07T09:58:02.070Z,4.00
2023-01-07T10:00:31.183Z,4.00
2023-01-07T10:03:12.878Z,4.20
2023-01-07T10:06:15.229Z,4.20
2023-01-07T10:08:54.143Z,4.30
2023-01-07T10:11:32.481Z,4.30
2023-01-07T10:14:17.476Z,4.50
2023-01-07T10:16:57.147Z,4.60
2023-01-07T10:19:35.876Z,4.70
2023-01-07T10:22:25.279Z,4.70
2023-01-07T10:24:59.118Z,4.70
2023-01-07T10:27:35.410Z,4.60
2023-01-07T10:30:11.255Z,4.70
2023-01-07T10:32:38.569Z,4.60
2023-01-07T10:35:13.559Z,4.50
2023-01-07T10:37:42.411Z,4.70
2023-01-07T10:40:38.582Z,4.80
2023-01-07T10:43:14.422Z,4.60
2023-01-07T10:45:59.262Z,4.40
2023-01-07T10:48:26.076Z,4.40
2023-01-07T10:51:07.147Z,4.50
2023-01-07T10:53:55.782Z,4.50
2023-01-07T10:56:36.660Z,4.80
2023-01-07T10:59:04.036Z,4.80
2023-01-07T11:01:41.123Z,4.70
2023-01-07T11:04:15.173Z,4.60
2023-01-07T11:06:49.940Z,4.50
2023-01-07T11:09:37.172Z,4.60
2023-01-07T11:12:34.293Z,4.60
2023-01-07T11:15:05.625Z,4.50
2023-01-07T11:17:39.358Z,4.60
2023-01-07T11:20:07.008Z,4.70
2023-01-07T11:22:36.761Z,4.80
2023-01-07T11:25:27.720Z,5.10
2023-01-07T11:27:58.773Z,5.20
2023-01-07T11:30:28.462Z,5.10
2023-01-07T11:33:07.012Z,5.10
2023-01-07T11:35:34.063Z,5.10
2023-01-07T11:38:00.892Z,5.20
2023-01-07T11:40:30.698Z,5.30
2023-01-07T11:43:20.364Z,5.60
2023-01-07T11:46:19.104Z,5.60
2023-01-07T11:49:01.101Z,5.40
2023-01-07T11:51:40.077Z,5.30
2023-01-07T11:54:22.444Z,5.40
2023-01-07T11:56:49.638Z,5.50
2023-01-07T11:59:27.008Z,5.60
2023-01-07T12:01:59.744Z,5.70
2023-01-07T12:04:31.587Z,5.80
2023-01-07T12:07:02.513Z,5.80
2023-01-07T12:09:32.048Z,5.80
2023-01-07T12:12:07.447Z,5.70
2023-01-07T12:14:38.365Z,5.90
2023-01-07T12:17:16.068Z,6.10
2023-01-07T12:19:54.763Z,6.00
2023-01-07T12:22:21.555Z,6.10
2023-01-07T12:24:57.414Z,6.00
2023-01-07T12:27:39.611Z,6.00
2023-01-07T12:30:30.352Z,6.00
2023-01-07T12:33:09.289Z,5.90
2023-01-07T12:35:40.331Z,6.00
2023-01-07T12:38:30.272Z,6.00
2023-01-07T12:41:01.844Z,6.10
2023-01-07T12:43:32.681Z,6.10
2023-01-07T12:46:02.763Z,5.90
2023-01-07T12:48:35.884Z,5.70
2023-01-07T12:51:04.498Z,5.70
2023-01-07T12:53:36.764Z,6.00
2023-01-07T12:56:11.535Z,6.10
2023-01-07T12:58:52.068Z,6.10
2023-01-07T13:01:28.231Z,6.10
2023-01-07T13:04:25.989Z,5.90
2023-01-07T13:07:05.689Z,6.00
2023-01-07T13:09:43.075Z,6.00
2023-01-07T13:12:42.541Z,5.80
2023-01-07T13:15:15.374Z,6.00
2023-01-07T13:17:43.419Z,5.90
2023-01-07T13:20:15.424Z,5.90
2023-01-07T13:22:45.416Z,6.00
2023-01-07T13:25:20.867Z,6.20
2023-01-07T13:28:07.490Z,6.30
2023-01-07T13:30:52.903Z,6.40
2023-01-07T13:33:37.227Z,6.60
2023-01-07T13:36:31.061Z,6.80
2023-01-07T13:39:04.104Z,6.50
2023-01-07T13:42:06.536Z,6.60
2023-01-07T13:45:02.027Z,6.50
2023-01-07T13:47:53.585Z,6.30
2023-01-07T13:50:37.492Z,6.10
2023-01-07T13:53:27.377Z,5.80
2023-01-07T13:56:16.638Z,5.80
2023-01-07T13:58:56.130Z,5.60
2023-01-07T14:01:32.922Z,5.60
2023-01-07T14:04:19.735Z,5.50
2023-01-07T14:06:52.130Z,5.40
2023-01-07T14:09:25.325Z,5.30
2023-01-07T14:12:03.872Z,5.20
2023-01-07T14:14:38.325Z,5.10
2023-01-07T14:17:50.738Z,5.10
2023-01-07T14:20:50.270Z,5.00
2023-01-07T14:23:35.887Z,4.90
2023-01-07T14:26:27.713Z,4.90
2023-01-07T14:29:12.082Z,4.90
2023-01-07T14:31:39.089Z,4.80
2023-01-07T14:34:26.880Z,4.80
2023-01-07T14:37:06.604Z,4.80
2023-01-07T14:39:44.816Z,4.80
2023-01-07T14:42:20.588Z,4.70
2023-01-07T14:44:49.249Z,4.80
2023-01-07T14:47:45.630Z,4.80
2023-01-07T14:50:34.575Z,4.70
2023-01-07T14:53:05.801Z,4.60
2023-01-07T14:55:49.759Z,4.50
2023-01-07T14:58:45.770Z,4.60
2023-01-07T15:02:00.557Z,4.50
2023-01-07T15:04:46.403Z,4.40
2023-01-07T15:07:20.829Z,4.40
2023-01-07T15:10:36.158Z,4.30
2023-01-07T15:13:22.846Z,4.20
2023-01-07T15:16:02.120Z,4.20
2023-01-07T15:18:31.334Z,4.10
2023-01-07T15:21:23.255Z,4.10
2023-01-07T15:24:17.447Z,4.10
2023-01-07T15:26:46.828Z,4.10
2023-01-07T15:29:31.234Z,4.10
2023-01-07T15:32:25.954Z,4.10
2023-01-07T15:34:52.864Z,4.20
2023-01-07T15:37:20.301Z,4.10
2023-01-07T15:39:52.175Z,4.10
2023-01-07T15:42:24.903Z,4.00
2023-01-07T15:44:57.475Z,4.20
2023-01-07T15:47:36.906Z,4.20
2023-01-07T15:50:19.256Z,4.20
2023-01-07T15:52:53.412Z,4.20
2023-01-07T15:55:45.326Z,4.90
2023-01-07T15:58:32.454Z,4.10
2023-01-07T16:01:00.842Z,4.10
2023-01-07T16:03:28.900Z,4.10
2023-01-07T16:05:56.379Z,4.10
2023-01-07T16:08:30.878Z,4.00
2023-01-07T16:11:06.626Z,4.00
2023-01-07T16:13:36.943Z,4.00
2023-01-07T16:16:06.020Z,4.00
2023-01-07T16:18:33.003Z,4.10
2023-01-07T16:21:07.515Z,4.10
2023-01-07T16:23:36.937Z,4.10
2023-01-07T16:26:05.932Z,4.00
2023-01-07T16:28:48.983Z,4.00
2023-01-07T16:31:18.966Z,4.00
2023-01-07T16:33:47.354Z,3.90
2023-01-07T16:36:20.442Z,3.90
2023-01-07T16:38:50.794Z,3.80
2023-01-07T16:41:25.880Z,3.80
2023-01-07T16:44:00.156Z,3.80
2023-01-07T16:46:28.130Z,3.90
2023-01-07T16:49:19.951Z,3.80
2023-01-07T16:51:52.861Z,3.80
2023-01-07T16:54:25.694Z,3.90
2023-01-07T16:56:58.055Z,3.80
2023-01-07T16:59:34.553Z,3.70
2023-01-07T17:02:30.986Z,3.80
2023-01-07T17:05:17.567Z,3.80
2023-01-07T17:07:49.100Z,3.80
2023-01-07T17:10:30.908Z,3.70
2023-01-07T17:13:13.719Z,3.70
2023-01-07T17:15:42.471Z,3.70
2023-01-07T17:18:12.372Z,3.70
2023-01-07T17:20:44.728Z,3.60
2023-01-07T17:23:26.971Z,3.50
2023-01-07T17:26:04.671Z,3.50
2023-01-07T17:28:34.517Z,3.50
2023-01-07T17:31:01.859Z,3.60
2023-01-07T17:33:29.540Z,3.50
2023-01-07T17:35:59.284Z,3.50
2023-01-07T17:38:26.096Z,3.50
2023-01-07T17:40:54.680Z,3.50
2023-01-07T17:43:35.035Z,3.40
2023-01-07T17:46:03.970Z,3.30
2023-01-07T17:48:32.422Z,3.30
2023-01-07T17:51:10.098Z,3.30
2023-01-07T17:53:43.752Z,3.40
2023-01-07T17:56:10.900Z,3.30
2023-01-07T17:58:41.073Z,3.30
2023-01-07T18:01:10.639Z,3.30
2023-01-07T18:03:37.705Z,3.40
2023-01-07T18:06:14.815Z,3.30
2023-01-07T18:08:41.666Z,3.20
2023-01-07T18:11:30.847Z,3.00
2023-01-07T18:14:00.310Z,3.00
2023-01-07T18:16:27.747Z,3.00
2023-01-07T18:18:54.742Z,3.10
2023-01-07T18:21:21.628Z,3.00
2023-01-07T18:23:48.671Z,3.00
2023-01-07T18:26:16.520Z,3.10
2023-01-07T18:28:43.797Z,3.00
2023-01-07T18:31:10.895Z,3.10
2023-01-07T18:33:38.473Z,3.10
2023-01-07T18:36:05.642Z,3.10
2023-01-07T18:38:32.647Z,3.00
2023-01-07T18:40:59.713Z,3.00
2023-01-07T18:43:26.539Z,2.90
2023-01-07T18:45:53.425Z,3.00
2023-01-07T18:48:21.159Z,3.10
2023-01-07T18:50:49.538Z,3.10
2023-01-07T18:53:18.351Z,3.10
2023-01-07T18:55:46.671Z,3.10
2023-01-07T18:58:15.251Z,3.10
2023-01-07T19:00:42.531Z,3.10
2023-01-07T19:03:10.768Z,3.20
2023-01-07T19:05:39.258Z,3.20
2023-01-07T19:08:06.188Z,3.20
2023-01-07T19:10:33.104Z,3.20
2023-01-07T19:13:00.564Z,3.10
2023-01-07T19:15:27.417Z,3.10
2023-01-07T19:17:54.267Z,3.10
2023-01-07T19:20:21.113Z,3.20
2023-01-07T19:22:47.956Z,3.20
2023-01-07T19:25:14.915Z,3.10
2023-01-07T19:27:41.745Z,3.10
2023-01-07T19:30:09.336Z,3.00
2023-01-07T19:32:36.264Z,3.10
2023-01-07T19:35:03.213Z,3.10
2023-01-07T19:37:30.041Z,3.10
2023-01-07T19:39:57.077Z,3.10
2023-01-07T19:42:24.230Z,3.10
2023-01-07T19:44:51.064Z,3.00
2023-01-07T19:47:17.919Z,3.10
2023-01-07T19:49:45.423Z,3.00
2023-01-07T19:52:13.593Z,3.10
2023-01-07T19:54:41.206Z,3.20
2023-01-07T19:57:08.170Z,3.20
2023-01-07T19:59:35.118Z,3.10
2023-01-07T20:02:03.209Z,3.10
2023-01-07T20:04:30.348Z,3.10
2023-01-07T20:06:57.175Z,3.10
2023-01-07T20:09:24.041Z,3.00
2023-01-07T20:11:54.005Z,3.00
2023-01-07T20:14:20.861Z,3.10
2023-01-07T20:16:47.893Z,3.10
2023-01-07T20:19:14.803Z,3.00
2023-01-07T20:21:41.784Z,2.90
2023-01-07T20:24:09.702Z,2.80
2023-01-07T20:26:38.230Z,3.00
2023-01-07T20:29:05.406Z,2.80
2023-01-07T20:31:32.655Z,2.80
2023-01-07T20:34:00.191Z,2.70
2023-01-07T20:36:29.850Z,2.80
2023-01-07T20:38:56.751Z,2.60
2023-01-07T20:41:26.666Z,2.60
2023-01-07T20:43:58.865Z,2.60
2023-01-07T20:46:27.260Z,2.70
2023-01-07T20:48:54.832Z,2.60
2023-01-07T20:51:22.020Z,2.50
2023-01-07T20:53:48.942Z,2.50
2023-01-07T20:56:18.945Z,2.70
2023-01-07T20:58:46.746Z,2.80
2023-01-07T21:01:16.395Z,2.90
2023-01-07T21:03:43.555Z,2.90
2023-01-07T21:06:13.430Z,2.80
2023-01-07T21:08:40.642Z,2.90
2023-01-07T21:11:19.363Z,2.90
2023-01-07T21:13:47.516Z,2.80
2023-01-07T21:16:14.790Z,2.90
2023-01-07T21:18:41.855Z,2.80
2023-01-07T21:21:19.163Z,2.80
2023-01-07T21:23:49.687Z,2.90
2023-01-07T21:26:16.945Z,2.90
2023-01-07T21:28:44.347Z,2.90
2023-01-07T21:31:15.648Z,2.90
2023-01-07T21:33:43.194Z,3.00
2023-01-07T21:36:15.874Z,3.00
2023-01-07T21:38:43.302Z,3.00
2023-01-07T21:41:15.920Z,2.90
2023-01-07T21:43:43.586Z,3.00
2023-01-07T21:46:11.214Z,3.00
2023-01-07T21:48:40.241Z,3.00
2023-01-07T21:51:10.780Z,3.10
2023-01-07T21:53:37.707Z,2.80
2023-01-07T21:56:09.371Z,2.90
2023-01-07T21:58:37.666Z,3.00
2023-01-07T22:01:08.420Z,3.00
2023-01-07T22:03:37.319Z,3.00
2023-01-07T22:06:13.389Z,3.00
2023-01-07T22:08:40.235Z,3.00
2023-01-07T22:11:07.437Z,3.00
2023-01-07T22:13:34.230Z,3.00
2023-01-07T22:16:04.364Z,3.00
2023-01-07T22:18:31.473Z,2.90
2023-01-07T22:20:58.366Z,3.00
2023-01-07T22:23:25.274Z,3.10
2023-01-07T22:25:52.253Z,3.00
2023-01-07T22:28:21.907Z,3.00
2023-01-07T22:30:57.654Z,3.00
2023-01-07T22:33:24.457Z,3.00
2023-01-07T22:35:51.858Z,2.90
2023-01-07T22:38:22.271Z,2.90
2023-01-07T22:40:49.426Z,2.90
2023-01-07T22:43:18.936Z,3.10
2023-01-07T22:45:58.001Z,2.40
2023-01-07T22:48:27.414Z,3.00
2023-01-07T22:50:59.553Z,3.00
2023-01-07T22:53:27.983Z,2.90
2023-01-07T22:55:54.802Z,3.00
2023-01-07T22:58:21.654Z,3.00
2023-01-07T23:00:51.760Z,3.10
2023-01-07T23:03:23.174Z,3.00
2023-01-07T23:05:50.946Z,3.00
2023-01-07T23:08:18.242Z,3.00
2023-01-07T23:10:45.567Z,3.00
2023-01-07T23:13:12.867Z,3.00
2023-01-07T23:15:40.213Z,3.00
2023-01-07T23:18:08.940Z,3.00
2023-01-07T23:20:40.043Z,3.80
2023-01-07T23:23:07.734Z,3.00
2023-01-07T23:25:35.659Z,3.00
2023-01-07T23:28:03.740Z,3.10
2023-01-07T23:30:30.581Z,3.10
2023-01-07T23:32:57.490Z,3.10
2023-01-07T23:35:24.310Z,3.10
2023-01-07T23:37:51.117Z,3.00
2023-01-07T23:40:18.860Z,3.00
2023-01-07T23:42:46.363Z,3.10
2023-01-07T23:45:13.171Z,3.10
2023-01-07T23:47:40.044Z,3.10
2023-01-07T23:50:07.507Z,3.00
2023-01-07T23:52:34.451Z,3.00
2023-01-07T23:55:01.308Z,3.00
2023-01-07T23:57:28.660Z,3.00
2023-01-07T23:59:55.532Z,3.10
